sensor_id;sensor_type;location;lat;lon;timestamp;P1;durP1;ratioP1;P2;durP2;ratioP2
8993;SDS011;4532;50.886;4.700;2023-06-26T00:00:31;6.13;;;4.40;;
8993;SDS011;4532;50.886;4.700;2023-06-26T00:03:02;5.97;;;4.40;;
8993;SDS011;4532;50.886;4.700;2023-06-26T00:05:29;5.88;;;4.13;;
8993;SDS011;4532;50.886;4.700;2023-06-26T00:07:59;6.28;;;4.70;;
8993;SDS011;4532;50.886;4.700;2023-06-26T00:10:27;5.25;;;4.28;;
8993;SDS011;4532;50.886;4.700;2023-06-26T00:12:56;6.47;;;4.93;;
8993;SDS011;4532;50.886;4.700;2023-06-26T00:15:32;4.68;;;4.25;;
8993;SDS011;4532;50.886;4.700;2023-06-26T00:17:59;6.63;;;4.03;;
8993;SDS011;4532;50.886;4.700;2023-06-26T00:20:26;4.93;;;3.83;;
8993;SDS011;4532;50.886;4.700;2023-06-26T00:22:56;5.03;;;3.80;;
8993;SDS011;4532;50.886;4.700;2023-06-26T00:25:26;4.43;;;3.58;;
8993;SDS011;4532;50.886;4.700;2023-06-26T00:27:53;4.35;;;3.63;;
8993;SDS011;4532;50.886;4.700;2023-06-26T00:30:20;5.18;;;3.83;;
8993;SDS011;4532;50.886;4.700;2023-06-26T00:32:52;4.90;;;3.97;;
8993;SDS011;4532;50.886;4.700;2023-06-26T00:35:21;3.95;;;3.58;;
8993;SDS011;4532;50.886;4.700;2023-06-26T00:37:48;4.05;;;3.60;;
8993;SDS011;4532;50.886;4.700;2023-06-26T00:40:16;5.47;;;3.83;;
8993;SDS011;4532;50.886;4.700;2023-06-26T00:42:46;4.05;;;3.65;;
8993;SDS011;4532;50.886;4.700;2023-06-26T00:45:17;4.53;;;4.07;;
8993;SDS011;4532;50.886;4.700;2023-06-26T00:48:03;5.07;;;4.07;;
8993;SDS011;4532;50.886;4.700;2023-06-26T00:50:34;4.82;;;4.22;;
8993;SDS011;4532;50.886;4.700;2023-06-26T00:53:02;5.72;;;4.05;;
8993;SDS011;4532;50.886;4.700;2023-06-26T00:55:30;5.93;;;4.40;;
8993;SDS011;4532;50.886;4.700;2023-06-26T00:57:57;5.20;;;4.30;;
8993;SDS011;4532;50.886;4.700;2023-06-26T01:00:27;4.85;;;4.05;;
8993;SDS011;4532;50.886;4.700;2023-06-26T01:02:55;4.90;;;4.32;;
8993;SDS011;4532;50.886;4.700;2023-06-26T01:05:30;4.68;;;4.10;;
8993;SDS011;4532;50.886;4.700;2023-06-26T01:07:57;5.85;;;4.07;;
8993;SDS011;4532;50.886;4.700;2023-06-26T01:10:27;4.63;;;3.90;;
8993;SDS011;4532;50.886;4.700;2023-06-26T01:12:58;4.13;;;3.65;;
8993;SDS011;4532;50.886;4.700;2023-06-26T01:15:26;5.20;;;3.85;;
8993;SDS011;4532;50.886;4.700;2023-06-26T01:17:53;4.47;;;3.80;;
8993;SDS011;4532;50.886;4.700;2023-06-26T01:20:22;5.20;;;3.65;;
8993;SDS011;4532;50.886;4.700;2023-06-26T01:25:37;4.28;;;3.40;;
8993;SDS011;4532;50.886;4.700;2023-06-26T01:28:10;4.43;;;3.63;;
8993;SDS011;4532;50.886;4.700;2023-06-26T01:30:42;4.45;;;3.40;;
8993;SDS011;4532;50.886;4.700;2023-06-26T01:33:13;4.15;;;3.22;;
8993;SDS011;4532;50.886;4.700;2023-06-26T01:35:45;5.00;;;3.47;;
8993;SDS011;4532;50.886;4.700;2023-06-26T01:38:14;6.28;;;3.88;;
8993;SDS011;4532;50.886;4.700;2023-06-26T01:40:43;3.67;;;3.28;;
8993;SDS011;4532;50.886;4.700;2023-06-26T01:43:24;3.83;;;3.40;;
8993;SDS011;4532;50.886;4.700;2023-06-26T01:45:54;4.38;;;3.53;;
8993;SDS011;4532;50.886;4.700;2023-06-26T01:48:55;4.18;;;3.25;;
8993;SDS011;4532;50.886;4.700;2023-06-26T01:51:34;4.90;;;3.05;;
8993;SDS011;4532;50.886;4.700;2023-06-26T01:54:17;5.05;;;3.38;;
8993;SDS011;4532;50.886;4.700;2023-06-26T01:56:49;4.38;;;3.10;;
8993;SDS011;4532;50.886;4.700;2023-06-26T01:59:25;4.40;;;3.00;;
8993;SDS011;4532;50.886;4.700;2023-06-26T02:01:55;8.27;;;3.20;;
8993;SDS011;4532;50.886;4.700;2023-06-26T02:04:23;4.22;;;3.15;;
8993;SDS011;4532;50.886;4.700;2023-06-26T02:06:55;5.20;;;3.20;;
8993;SDS011;4532;50.886;4.700;2023-06-26T02:09:25;3.92;;;2.67;;
8993;SDS011;4532;50.886;4.700;2023-06-26T02:11:57;6.43;;;3.28;;
8993;SDS011;4532;50.886;4.700;2023-06-26T02:14:27;3.30;;;2.67;;
8993;SDS011;4532;50.886;4.700;2023-06-26T02:16:54;3.25;;;2.72;;
8993;SDS011;4532;50.886;4.700;2023-06-26T02:19:21;4.43;;;3.00;;
8993;SDS011;4532;50.886;4.700;2023-06-26T02:21:51;3.60;;;2.88;;
8993;SDS011;4532;50.886;4.700;2023-06-26T02:24:19;3.60;;;2.90;;
8993;SDS011;4532;50.886;4.700;2023-06-26T02:26:48;6.13;;;2.60;;
8993;SDS011;4532;50.886;4.700;2023-06-26T02:29:16;5.85;;;3.00;;
8993;SDS011;4532;50.886;4.700;2023-06-26T02:31:45;3.40;;;3.00;;
8993;SDS011;4532;50.886;4.700;2023-06-26T02:34:15;3.72;;;2.80;;
8993;SDS011;4532;50.886;4.700;2023-06-26T02:36:44;4.10;;;2.85;;
8993;SDS011;4532;50.886;4.700;2023-06-26T02:39:12;4.32;;;3.10;;
8993;SDS011;4532;50.886;4.700;2023-06-26T02:41:40;5.80;;;3.25;;
8993;SDS011;4532;50.886;4.700;2023-06-26T02:44:10;4.13;;;2.78;;
8993;SDS011;4532;50.886;4.700;2023-06-26T02:46:40;4.10;;;2.60;;
8993;SDS011;4532;50.886;4.700;2023-06-26T02:49:08;5.00;;;2.92;;
8993;SDS011;4532;50.886;4.700;2023-06-26T02:51:37;4.65;;;2.90;;
8993;SDS011;4532;50.886;4.700;2023-06-26T02:54:09;4.63;;;2.72;;
8993;SDS011;4532;50.886;4.700;2023-06-26T02:56:39;4.03;;;2.65;;
8993;SDS011;4532;50.886;4.700;2023-06-26T02:59:13;7.03;;;3.30;;
8993;SDS011;4532;50.886;4.700;2023-06-26T03:01:46;4.85;;;2.83;;
8993;SDS011;4532;50.886;4.700;2023-06-26T03:04:16;7.70;;;3.03;;
8993;SDS011;4532;50.886;4.700;2023-06-26T03:06:50;4.07;;;2.92;;
8993;SDS011;4532;50.886;4.700;2023-06-26T03:09:17;6.90;;;3.42;;
8993;SDS011;4532;50.886;4.700;2023-06-26T03:11:47;4.35;;;3.08;;
8993;SDS011;4532;50.886;4.700;2023-06-26T03:14:20;6.10;;;3.25;;
8993;SDS011;4532;50.886;4.700;2023-06-26T03:16:47;6.07;;;2.90;;
8993;SDS011;4532;50.886;4.700;2023-06-26T03:19:17;5.65;;;2.90;;
8993;SDS011;4532;50.886;4.700;2023-06-26T03:21:44;5.95;;;2.85;;
8993;SDS011;4532;50.886;4.700;2023-06-26T03:24:17;6.68;;;3.40;;
8993;SDS011;4532;50.886;4.700;2023-06-26T03:26:44;5.03;;;2.70;;
8993;SDS011;4532;50.886;4.700;2023-06-26T03:29:11;5.75;;;3.00;;
8993;SDS011;4532;50.886;4.700;2023-06-26T03:31:38;5.55;;;3.35;;
8993;SDS011;4532;50.886;4.700;2023-06-26T03:34:06;5.15;;;2.65;;
8993;SDS011;4532;50.886;4.700;2023-06-26T03:36:35;6.50;;;2.72;;
8993;SDS011;4532;50.886;4.700;2023-06-26T03:39:05;6.32;;;3.10;;
8993;SDS011;4532;50.886;4.700;2023-06-26T03:41:32;6.90;;;3.00;;
8993;SDS011;4532;50.886;4.700;2023-06-26T03:44:01;7.00;;;3.50;;
8993;SDS011;4532;50.886;4.700;2023-06-26T03:46:29;5.72;;;3.10;;
8993;SDS011;4532;50.886;4.700;2023-06-26T03:48:56;7.43;;;3.40;;
8993;SDS011;4532;50.886;4.700;2023-06-26T03:51:26;6.60;;;3.13;;
8993;SDS011;4532;50.886;4.700;2023-06-26T03:53:53;8.57;;;3.47;;
8993;SDS011;4532;50.886;4.700;2023-06-26T03:56:28;6.50;;;3.08;;
8993;SDS011;4532;50.886;4.700;2023-06-26T03:58:55;5.95;;;3.72;;
8993;SDS011;4532;50.886;4.700;2023-06-26T04:01:22;6.40;;;3.17;;
8993;SDS011;4532;50.886;4.700;2023-06-26T04:03:50;7.07;;;3.15;;
8993;SDS011;4532;50.886;4.700;2023-06-26T04:06:17;6.95;;;3.00;;
8993;SDS011;4532;50.886;4.700;2023-06-26T04:08:46;10.00;;;3.60;;
8993;SDS011;4532;50.886;4.700;2023-06-26T04:11:14;6.35;;;3.22;;
8993;SDS011;4532;50.886;4.700;2023-06-26T04:13:42;6.63;;;3.25;;
8993;SDS011;4532;50.886;4.700;2023-06-26T04:16:11;9.45;;;3.83;;
8993;SDS011;4532;50.886;4.700;2023-06-26T04:18:38;8.13;;;3.28;;
8993;SDS011;4532;50.886;4.700;2023-06-26T04:23:40;7.35;;;3.33;;
8993;SDS011;4532;50.886;4.700;2023-06-26T04:26:07;6.25;;;3.08;;
8993;SDS011;4532;50.886;4.700;2023-06-26T04:28:43;7.80;;;3.33;;
8993;SDS011;4532;50.886;4.700;2023-06-26T04:31:10;6.75;;;2.97;;
8993;SDS011;4532;50.886;4.700;2023-06-26T04:33:40;9.05;;;3.67;;
8993;SDS011;4532;50.886;4.700;2023-06-26T04:36:09;8.60;;;3.17;;
8993;SDS011;4532;50.886;4.700;2023-06-26T04:38:37;10.32;;;3.28;;
8993;SDS011;4532;50.886;4.700;2023-06-26T04:41:05;10.15;;;3.10;;
8993;SDS011;4532;50.886;4.700;2023-06-26T04:43:32;8.57;;;2.97;;
8993;SDS011;4532;50.886;4.700;2023-06-26T04:45:59;11.38;;;3.65;;
8993;SDS011;4532;50.886;4.700;2023-06-26T04:48:32;8.77;;;3.60;;
8993;SDS011;4532;50.886;4.700;2023-06-26T04:51:01;11.23;;;3.60;;
8993;SDS011;4532;50.886;4.700;2023-06-26T04:53:29;10.63;;;3.30;;
8993;SDS011;4532;50.886;4.700;2023-06-26T04:55:56;8.95;;;3.45;;
8993;SDS011;4532;50.886;4.700;2023-06-26T04:58:23;9.15;;;3.65;;
8993;SDS011;4532;50.886;4.700;2023-06-26T05:00:56;12.82;;;4.10;;
8993;SDS011;4532;50.886;4.700;2023-06-26T05:03:28;6.68;;;3.15;;
8993;SDS011;4532;50.886;4.700;2023-06-26T05:05:58;8.20;;;3.55;;
8993;SDS011;4532;50.886;4.700;2023-06-26T05:08:27;9.98;;;3.13;;
8993;SDS011;4532;50.886;4.700;2023-06-26T05:10:56;8.52;;;2.83;;
8993;SDS011;4532;50.886;4.700;2023-06-26T05:13:25;9.57;;;3.22;;
8993;SDS011;4532;50.886;4.700;2023-06-26T05:15:52;7.72;;;3.17;;
8993;SDS011;4532;50.886;4.700;2023-06-26T05:18:22;8.85;;;3.15;;
8993;SDS011;4532;50.886;4.700;2023-06-26T05:20:49;10.13;;;3.42;;
8993;SDS011;4532;50.886;4.700;2023-06-26T05:23:19;9.63;;;3.25;;
8993;SDS011;4532;50.886;4.700;2023-06-26T05:25:50;5.75;;;2.92;;
8993;SDS011;4532;50.886;4.700;2023-06-26T05:28:22;9.15;;;2.97;;
8993;SDS011;4532;50.886;4.700;2023-06-26T05:30:54;7.35;;;2.83;;
8993;SDS011;4532;50.886;4.700;2023-06-26T05:33:23;9.02;;;3.40;;
8993;SDS011;4532;50.886;4.700;2023-06-26T05:35:51;8.98;;;2.88;;
8993;SDS011;4532;50.886;4.700;2023-06-26T05:38:20;9.32;;;3.03;;
8993;SDS011;4532;50.886;4.700;2023-06-26T05:40:50;19.35;;;3.83;;
8993;SDS011;4532;50.886;4.700;2023-06-26T05:43:17;7.07;;;2.75;;
8993;SDS011;4532;50.886;4.700;2023-06-26T05:45:56;10.35;;;2.92;;
8993;SDS011;4532;50.886;4.700;2023-06-26T05:48:29;8.43;;;2.60;;
8993;SDS011;4532;50.886;4.700;2023-06-26T05:50:56;8.05;;;2.92;;
8993;SDS011;4532;50.886;4.700;2023-06-26T05:53:24;7.50;;;2.60;;
8993;SDS011;4532;50.886;4.700;2023-06-26T05:55:52;12.35;;;3.25;;
8993;SDS011;4532;50.886;4.700;2023-06-26T05:58:19;6.80;;;2.88;;
8993;SDS011;4532;50.886;4.700;2023-06-26T06:00:50;7.82;;;2.88;;
8993;SDS011;4532;50.886;4.700;2023-06-26T06:03:20;8.88;;;2.92;;
8993;SDS011;4532;50.886;4.700;2023-06-26T06:05:47;9.50;;;2.60;;
8993;SDS011;4532;50.886;4.700;2023-06-26T06:08:18;7.13;;;2.67;;
8993;SDS011;4532;50.886;4.700;2023-06-26T06:10:47;10.15;;;3.05;;
8993;SDS011;4532;50.886;4.700;2023-06-26T06:13:16;11.60;;;3.13;;
8993;SDS011;4532;50.886;4.700;2023-06-26T06:15:46;12.73;;;3.15;;
8993;SDS011;4532;50.886;4.700;2023-06-26T06:18:16;8.57;;;3.05;;
8993;SDS011;4532;50.886;4.700;2023-06-26T06:20:43;8.52;;;2.60;;
8993;SDS011;4532;50.886;4.700;2023-06-26T06:23:11;8.82;;;2.45;;
8993;SDS011;4532;50.886;4.700;2023-06-26T06:25:40;9.27;;;2.42;;
8993;SDS011;4532;50.886;4.700;2023-06-26T06:28:07;6.65;;;2.53;;
8993;SDS011;4532;50.886;4.700;2023-06-26T06:30:35;5.63;;;2.65;;
8993;SDS011;4532;50.886;4.700;2023-06-26T06:33:13;7.93;;;2.53;;
8993;SDS011;4532;50.886;4.700;2023-06-26T06:35:41;10.60;;;3.30;;
8993;SDS011;4532;50.886;4.700;2023-06-26T06:38:10;4.60;;;1.95;;
8993;SDS011;4532;50.886;4.700;2023-06-26T06:40:38;7.00;;;2.60;;
8993;SDS011;4532;50.886;4.700;2023-06-26T06:43:05;6.18;;;2.22;;
8993;SDS011;4532;50.886;4.700;2023-06-26T06:45:32;5.18;;;2.28;;
8993;SDS011;4532;50.886;4.700;2023-06-26T06:48:02;8.48;;;2.38;;
8993;SDS011;4532;50.886;4.700;2023-06-26T06:50:34;8.07;;;2.30;;
8993;SDS011;4532;50.886;4.700;2023-06-26T06:53:02;7.22;;;2.08;;
8993;SDS011;4532;50.886;4.700;2023-06-26T06:55:32;8.65;;;2.33;;
8993;SDS011;4532;50.886;4.700;2023-06-26T06:58:03;6.55;;;2.20;;
8993;SDS011;4532;50.886;4.700;2023-06-26T07:00:31;7.57;;;2.38;;
8993;SDS011;4532;50.886;4.700;2023-06-26T07:03:03;7.25;;;2.13;;
8993;SDS011;4532;50.886;4.700;2023-06-26T07:05:31;5.78;;;1.95;;
8993;SDS011;4532;50.886;4.700;2023-06-26T07:07:58;6.32;;;2.08;;
8993;SDS011;4532;50.886;4.700;2023-06-26T07:10:27;5.32;;;2.30;;
8993;SDS011;4532;50.886;4.700;2023-06-26T07:13:00;5.05;;;2.15;;
8993;SDS011;4532;50.886;4.700;2023-06-26T07:15:30;5.75;;;1.90;;
8993;SDS011;4532;50.886;4.700;2023-06-26T07:18:00;4.25;;;1.65;;
8993;SDS011;4532;50.886;4.700;2023-06-26T07:20:27;5.65;;;2.00;;
8993;SDS011;4532;50.886;4.700;2023-06-26T07:22:55;3.78;;;1.85;;
8993;SDS011;4532;50.886;4.700;2023-06-26T07:25:22;6.03;;;1.75;;
8993;SDS011;4532;50.886;4.700;2023-06-26T07:27:49;5.85;;;2.13;;
8993;SDS011;4532;50.886;4.700;2023-06-26T07:30:21;4.93;;;2.10;;
8993;SDS011;4532;50.886;4.700;2023-06-26T07:32:48;6.75;;;2.22;;
8993;SDS011;4532;50.886;4.700;2023-06-26T07:35:16;4.78;;;1.70;;
8993;SDS011;4532;50.886;4.700;2023-06-26T07:37:49;5.53;;;2.15;;
8993;SDS011;4532;50.886;4.700;2023-06-26T07:40:16;3.92;;;1.60;;
8993;SDS011;4532;50.886;4.700;2023-06-26T07:42:44;5.25;;;1.90;;
8993;SDS011;4532;50.886;4.700;2023-06-26T07:45:16;5.18;;;1.95;;
8993;SDS011;4532;50.886;4.700;2023-06-26T07:47:46;4.22;;;1.65;;
8993;SDS011;4532;50.886;4.700;2023-06-26T07:50:14;6.32;;;2.15;;
8993;SDS011;4532;50.886;4.700;2023-06-26T07:52:49;5.18;;;1.80;;
8993;SDS011;4532;50.886;4.700;2023-06-26T07:55:16;4.82;;;1.77;;
8993;SDS011;4532;50.886;4.700;2023-06-26T07:57:49;7.03;;;2.33;;
8993;SDS011;4532;50.886;4.700;2023-06-26T08:00:18;3.88;;;1.67;;
8993;SDS011;4532;50.886;4.700;2023-06-26T08:02:45;5.40;;;2.17;;
8993;SDS011;4532;50.886;4.700;2023-06-26T08:05:18;6.70;;;2.60;;
8993;SDS011;4532;50.886;4.700;2023-06-26T08:07:45;8.98;;;2.05;;
8993;SDS011;4532;50.886;4.700;2023-06-26T08:10:15;5.55;;;1.95;;
8993;SDS011;4532;50.886;4.700;2023-06-26T08:12:45;5.25;;;1.60;;
8993;SDS011;4532;50.886;4.700;2023-06-26T08:15:17;6.55;;;2.00;;
8993;SDS011;4532;50.886;4.700;2023-06-26T08:17:47;5.15;;;1.63;;
8993;SDS011;4532;50.886;4.700;2023-06-26T08:20:17;4.90;;;1.92;;
8993;SDS011;4532;50.886;4.700;2023-06-26T08:22:49;6.10;;;2.05;;
8993;SDS011;4532;50.886;4.700;2023-06-26T08:25:19;6.47;;;2.03;;
8993;SDS011;4532;50.886;4.700;2023-06-26T08:27:49;4.53;;;1.80;;
8993;SDS011;4532;50.886;4.700;2023-06-26T08:30:21;8.57;;;2.90;;
8993;SDS011;4532;50.886;4.700;2023-06-26T08:32:51;3.83;;;1.63;;
8993;SDS011;4532;50.886;4.700;2023-06-26T08:35:19;6.55;;;1.80;;
8993;SDS011;4532;50.886;4.700;2023-06-26T08:37:48;5.30;;;1.83;;
8993;SDS011;4532;50.886;4.700;2023-06-26T08:40:18;4.82;;;1.63;;
8993;SDS011;4532;50.886;4.700;2023-06-26T08:42:48;6.75;;;2.70;;
8993;SDS011;4532;50.886;4.700;2023-06-26T08:45:21;8.40;;;1.95;;
8993;SDS011;4532;50.886;4.700;2023-06-26T08:47:54;5.70;;;1.63;;
8993;SDS011;4532;50.886;4.700;2023-06-26T08:50:27;3.42;;;1.52;;
8993;SDS011;4532;50.886;4.700;2023-06-26T08:55:56;3.28;;;1.50;;
8993;SDS011;4532;50.886;4.700;2023-06-26T08:58:24;10.07;;;2.30;;
8993;SDS011;4532;50.886;4.700;2023-06-26T09:00:54;5.43;;;1.63;;
8993;SDS011;4532;50.886;4.700;2023-06-26T09:03:22;6.68;;;1.45;;
8993;SDS011;4532;50.886;4.700;2023-06-26T09:05:52;3.58;;;1.60;;
8993;SDS011;4532;50.886;4.700;2023-06-26T09:08:20;3.42;;;1.52;;
8993;SDS011;4532;50.886;4.700;2023-06-26T09:10:49;5.18;;;1.48;;
8993;SDS011;4532;50.886;4.700;2023-06-26T09:13:19;3.20;;;1.40;;
8993;SDS011;4532;50.886;4.700;2023-06-26T09:15:55;5.97;;;1.60;;
8993;SDS011;4532;50.886;4.700;2023-06-26T09:18:23;2.47;;;1.45;;
8993;SDS011;4532;50.886;4.700;2023-06-26T09:20:50;3.42;;;1.35;;
8993;SDS011;4532;50.886;4.700;2023-06-26T09:23:21;3.70;;;1.30;;
8993;SDS011;4532;50.886;4.700;2023-06-26T09:25:51;4.28;;;1.60;;
8993;SDS011;4532;50.886;4.700;2023-06-26T09:28:25;4.05;;;1.55;;
8993;SDS011;4532;50.886;4.700;2023-06-26T09:30:55;4.38;;;1.70;;
8993;SDS011;4532;50.886;4.700;2023-06-26T09:33:34;5.38;;;1.80;;
8993;SDS011;4532;50.886;4.700;2023-06-26T09:36:09;18.13;;;7.25;;
8993;SDS011;4532;50.886;4.700;2023-06-26T09:38:48;11.02;;;4.57;;
8993;SDS011;4532;50.886;4.700;2023-06-26T09:41:20;9.48;;;5.43;;
8993;SDS011;4532;50.886;4.700;2023-06-26T09:43:50;13.35;;;2.40;;
8993;SDS011;4532;50.886;4.700;2023-06-26T09:51:51;3.95;;;1.77;;
8993;SDS011;4532;50.886;4.700;2023-06-26T09:54:21;5.53;;;2.55;;
8993;SDS011;4532;50.886;4.700;2023-06-26T09:56:56;3.20;;;1.50;;
8993;SDS011;4532;50.886;4.700;2023-06-26T09:59:33;3.33;;;1.58;;
8993;SDS011;4532;50.886;4.700;2023-06-26T10:02:01;6.10;;;1.50;;
8993;SDS011;4532;50.886;4.700;2023-06-26T10:04:35;2.88;;;1.70;;
8993;SDS011;4532;50.886;4.700;2023-06-26T10:07:04;3.42;;;1.70;;
8993;SDS011;4532;50.886;4.700;2023-06-26T10:09:33;3.53;;;1.67;;
8993;SDS011;4532;50.886;4.700;2023-06-26T10:12:03;6.32;;;1.63;;
8993;SDS011;4532;50.886;4.700;2023-06-26T10:14:39;4.70;;;1.52;;
8993;SDS011;4532;50.886;4.700;2023-06-26T10:17:15;3.70;;;1.40;;
8993;SDS011;4532;50.886;4.700;2023-06-26T10:19:48;2.83;;;1.33;;
8993;SDS011;4532;50.886;4.700;2023-06-26T10:22:18;4.60;;;1.42;;
8993;SDS011;4532;50.886;4.700;2023-06-26T10:24:53;4.90;;;1.20;;
8993;SDS011;4532;50.886;4.700;2023-06-26T10:27:25;2.80;;;1.10;;
8993;SDS011;4532;50.886;4.700;2023-06-26T10:30:06;4.18;;;1.23;;
8993;SDS011;4532;50.886;4.700;2023-06-26T10:32:44;2.97;;;1.30;;
8993;SDS011;4532;50.886;4.700;2023-06-26T10:35:13;6.32;;;1.60;;
8993;SDS011;4532;50.886;4.700;2023-06-26T10:37:46;5.03;;;1.20;;
8993;SDS011;4532;50.886;4.700;2023-06-26T10:40:30;2.85;;;1.25;;
8993;SDS011;4532;50.886;4.700;2023-06-26T10:43:15;3.00;;;1.10;;
8993;SDS011;4532;50.886;4.700;2023-06-26T10:45:46;3.15;;;0.98;;
8993;SDS011;4532;50.886;4.700;2023-06-26T10:48:19;2.47;;;1.10;;
8993;SDS011;4532;50.886;4.700;2023-06-26T10:50:47;2.83;;;1.48;;
8993;SDS011;4532;50.886;4.700;2023-06-26T10:56:00;3.97;;;1.20;;
8993;SDS011;4532;50.886;4.700;2023-06-26T11:03:42;4.57;;;1.27;;
8993;SDS011;4532;50.886;4.700;2023-06-26T11:06:21;2.47;;;1.13;;
8993;SDS011;4532;50.886;4.700;2023-06-26T11:08:51;4.00;;;1.42;;
8993;SDS011;4532;50.886;4.700;2023-06-26T11:14:19;2.67;;;1.40;;
8993;SDS011;4532;50.886;4.700;2023-06-26T11:16:51;4.30;;;1.35;;
8993;SDS011;4532;50.886;4.700;2023-06-26T11:19:18;3.50;;;1.35;;
8993;SDS011;4532;50.886;4.700;2023-06-26T11:21:47;6.30;;;1.42;;
8993;SDS011;4532;50.886;4.700;2023-06-26T11:24:14;4.00;;;1.40;;
8993;SDS011;4532;50.886;4.700;2023-06-26T11:26:43;6.38;;;1.70;;
8993;SDS011;4532;50.886;4.700;2023-06-26T11:29:13;2.90;;;1.52;;
8993;SDS011;4532;50.886;4.700;2023-06-26T11:31:41;4.53;;;1.35;;
8993;SDS011;4532;50.886;4.700;2023-06-26T11:34:12;2.63;;;1.30;;
8993;SDS011;4532;50.886;4.700;2023-06-26T11:36:42;3.45;;;1.27;;
8993;SDS011;4532;50.886;4.700;2023-06-26T11:39:17;3.28;;;1.45;;
8993;SDS011;4532;50.886;4.700;2023-06-26T11:41:44;3.78;;;1.35;;
8993;SDS011;4532;50.886;4.700;2023-06-26T11:44:14;3.92;;;1.48;;
8993;SDS011;4532;50.886;4.700;2023-06-26T11:46:46;3.80;;;1.27;;
8993;SDS011;4532;50.886;4.700;2023-06-26T11:49:16;4.93;;;1.50;;
8993;SDS011;4532;50.886;4.700;2023-06-26T11:51:46;5.00;;;1.80;;
8993;SDS011;4532;50.886;4.700;2023-06-26T11:54:26;3.05;;;1.30;;
8993;SDS011;4532;50.886;4.700;2023-06-26T11:56:57;5.22;;;1.30;;
8993;SDS011;4532;50.886;4.700;2023-06-26T11:59:33;2.45;;;1.10;;
8993;SDS011;4532;50.886;4.700;2023-06-26T12:02:07;4.13;;;1.45;;
8993;SDS011;4532;50.886;4.700;2023-06-26T12:04:38;3.58;;;1.50;;
8993;SDS011;4532;50.886;4.700;2023-06-26T12:07:09;4.45;;;1.83;;
8993;SDS011;4532;50.886;4.700;2023-06-26T12:09:38;2.13;;;1.10;;
8993;SDS011;4532;50.886;4.700;2023-06-26T12:12:17;2.40;;;1.27;;
8993;SDS011;4532;50.886;4.700;2023-06-26T12:14:47;2.83;;;1.52;;
8993;SDS011;4532;50.886;4.700;2023-06-26T12:17:14;3.63;;;1.60;;
8993;SDS011;4532;50.886;4.700;2023-06-26T12:19:47;3.95;;;1.60;;
8993;SDS011;4532;50.886;4.700;2023-06-26T12:22:15;3.97;;;1.40;;
8993;SDS011;4532;50.886;4.700;2023-06-26T12:24:46;2.67;;;1.50;;
8993;SDS011;4532;50.886;4.700;2023-06-26T12:27:17;5.72;;;1.90;;
8993;SDS011;4532;50.886;4.700;2023-06-26T12:29:54;3.72;;;1.30;;
8993;SDS011;4532;50.886;4.700;2023-06-26T12:32:24;5.15;;;1.80;;
8993;SDS011;4532;50.886;4.700;2023-06-26T12:34:56;5.10;;;1.55;;
8993;SDS011;4532;50.886;4.700;2023-06-26T12:37:26;3.15;;;1.58;;
8993;SDS011;4532;50.886;4.700;2023-06-26T12:39:57;2.33;;;1.30;;
8993;SDS011;4532;50.886;4.700;2023-06-26T12:42:32;1.55;;;1.23;;
8993;SDS011;4532;50.886;4.700;2023-06-26T12:45:10;3.88;;;1.60;;
8993;SDS011;4532;50.886;4.700;2023-06-26T12:48:06;4.15;;;1.30;;
8993;SDS011;4532;50.886;4.700;2023-06-26T12:50:44;2.63;;;1.20;;
8993;SDS011;4532;50.886;4.700;2023-06-26T12:53:17;2.42;;;1.60;;
8993;SDS011;4532;50.886;4.700;2023-06-26T12:55:47;3.58;;;1.45;;
8993;SDS011;4532;50.886;4.700;2023-06-26T12:58:16;3.83;;;1.45;;
8993;SDS011;4532;50.886;4.700;2023-06-26T13:00:47;3.13;;;1.35;;
8993;SDS011;4532;50.886;4.700;2023-06-26T13:03:16;2.20;;;1.23;;
8993;SDS011;4532;50.886;4.700;2023-06-26T13:05:49;3.47;;;1.50;;
8993;SDS011;4532;50.886;4.700;2023-06-26T13:08:17;4.72;;;1.67;;
8993;SDS011;4532;50.886;4.700;2023-06-26T13:10:46;3.40;;;1.55;;
8993;SDS011;4532;50.886;4.700;2023-06-26T13:13:18;6.32;;;1.58;;
8993;SDS011;4532;50.886;4.700;2023-06-26T13:15:45;2.67;;;1.15;;
8993;SDS011;4532;50.886;4.700;2023-06-26T13:18:15;3.65;;;1.20;;
8993;SDS011;4532;50.886;4.700;2023-06-26T13:20:44;6.72;;;1.77;;
8993;SDS011;4532;50.886;4.700;2023-06-26T13:23:12;3.03;;;1.40;;
8993;SDS011;4532;50.886;4.700;2023-06-26T13:25:43;2.17;;;1.30;;
8993;SDS011;4532;50.886;4.700;2023-06-26T13:28:10;3.00;;;1.30;;
8993;SDS011;4532;50.886;4.700;2023-06-26T13:30:40;2.97;;;1.40;;
8993;SDS011;4532;50.886;4.700;2023-06-26T13:33:08;2.83;;;1.40;;
8993;SDS011;4532;50.886;4.700;2023-06-26T13:35:37;3.35;;;1.58;;
8993;SDS011;4532;50.886;4.700;2023-06-26T13:38:11;5.32;;;1.45;;
8993;SDS011;4532;50.886;4.700;2023-06-26T13:40:41;3.50;;;1.25;;
8993;SDS011;4532;50.886;4.700;2023-06-26T13:43:08;4.38;;;1.42;;
8993;SDS011;4532;50.886;4.700;2023-06-26T13:45:36;3.33;;;1.40;;
8993;SDS011;4532;50.886;4.700;2023-06-26T13:48:05;4.45;;;1.55;;
8993;SDS011;4532;50.886;4.700;2023-06-26T13:50:32;3.35;;;1.42;;
8993;SDS011;4532;50.886;4.700;2023-06-26T13:53:19;3.70;;;1.40;;
8993;SDS011;4532;50.886;4.700;2023-06-26T13:55:49;2.45;;;1.23;;
8993;SDS011;4532;50.886;4.700;2023-06-26T13:58:16;2.90;;;1.48;;
8993;SDS011;4532;50.886;4.700;2023-06-26T14:00:51;3.60;;;1.48;;
8993;SDS011;4532;50.886;4.700;2023-06-26T14:03:21;3.92;;;1.55;;
8993;SDS011;4532;50.886;4.700;2023-06-26T14:05:49;4.75;;;1.58;;
8993;SDS011;4532;50.886;4.700;2023-06-26T14:08:18;4.38;;;1.70;;
8993;SDS011;4532;50.886;4.700;2023-06-26T14:10:48;4.20;;;1.67;;
8993;SDS011;4532;50.886;4.700;2023-06-26T14:13:16;4.15;;;1.67;;
8993;SDS011;4532;50.886;4.700;2023-06-26T14:15:44;4.93;;;1.70;;
8993;SDS011;4532;50.886;4.700;2023-06-26T14:18:12;4.32;;;1.60;;
8993;SDS011;4532;50.886;4.700;2023-06-26T14:20:41;5.90;;;1.40;;
8993;SDS011;4532;50.886;4.700;2023-06-26T14:23:11;3.13;;;1.48;;
8993;SDS011;4532;50.886;4.700;2023-06-26T14:25:38;3.42;;;1.48;;
8993;SDS011;4532;50.886;4.700;2023-06-26T14:28:05;4.30;;;1.60;;
8993;SDS011;4532;50.886;4.700;2023-06-26T14:30:32;2.60;;;1.20;;
8993;SDS011;4532;50.886;4.700;2023-06-26T14:32:59;3.72;;;1.27;;
8993;SDS011;4532;50.886;4.700;2023-06-26T14:35:29;3.30;;;1.35;;
8993;SDS011;4532;50.886;4.700;2023-06-26T14:38:02;5.28;;;1.50;;
8993;SDS011;4532;50.886;4.700;2023-06-26T14:40:29;3.67;;;1.65;;
8993;SDS011;4532;50.886;4.700;2023-06-26T14:42:57;2.22;;;1.30;;
8993;SDS011;4532;50.886;4.700;2023-06-26T14:45:24;4.30;;;1.40;;
8993;SDS011;4532;50.886;4.700;2023-06-26T14:47:52;3.95;;;1.60;;
8993;SDS011;4532;50.886;4.700;2023-06-26T14:50:22;4.82;;;1.20;;
8993;SDS011;4532;50.886;4.700;2023-06-26T14:52:49;2.67;;;1.45;;
8993;SDS011;4532;50.886;4.700;2023-06-26T14:55:21;2.38;;;1.33;;
8993;SDS011;4532;50.886;4.700;2023-06-26T14:57:51;3.85;;;1.58;;
8993;SDS011;4532;50.886;4.700;2023-06-26T15:00:19;3.70;;;1.42;;
8993;SDS011;4532;50.886;4.700;2023-06-26T15:02:53;4.70;;;1.88;;
8993;SDS011;4532;50.886;4.700;2023-06-26T15:05:30;2.38;;;1.27;;
8993;SDS011;4532;50.886;4.700;2023-06-26T15:08:00;4.93;;;1.70;;
8993;SDS011;4532;50.886;4.700;2023-06-26T15:10:30;2.55;;;1.55;;
8993;SDS011;4532;50.886;4.700;2023-06-26T15:12:59;4.07;;;1.20;;
8993;SDS011;4532;50.886;4.700;2023-06-26T15:15:27;3.15;;;1.48;;
8993;SDS011;4532;50.886;4.700;2023-06-26T15:17:56;3.72;;;1.50;;
8993;SDS011;4532;50.886;4.700;2023-06-26T15:20:26;4.95;;;1.58;;
8993;SDS011;4532;50.886;4.700;2023-06-26T15:22:55;6.07;;;1.60;;
8993;SDS011;4532;50.886;4.700;2023-06-26T15:25:26;8.98;;;1.70;;
8993;SDS011;4532;50.886;4.700;2023-06-26T15:27:54;4.63;;;1.70;;
8993;SDS011;4532;50.886;4.700;2023-06-26T15:30:22;2.33;;;1.40;;
8993;SDS011;4532;50.886;4.700;2023-06-26T15:32:49;4.47;;;1.35;;
8993;SDS011;4532;50.886;4.700;2023-06-26T15:35:16;3.90;;;1.40;;
8993;SDS011;4532;50.886;4.700;2023-06-26T15:37:49;6.35;;;2.35;;
8993;SDS011;4532;50.886;4.700;2023-06-26T15:40:19;3.70;;;1.30;;
8993;SDS011;4532;50.886;4.700;2023-06-26T15:42:49;2.70;;;1.27;;
8993;SDS011;4532;50.886;4.700;2023-06-26T15:45:20;6.75;;;1.80;;
8993;SDS011;4532;50.886;4.700;2023-06-26T15:47:51;3.85;;;1.80;;
8993;SDS011;4532;50.886;4.700;2023-06-26T15:50:23;4.43;;;1.40;;
8993;SDS011;4532;50.886;4.700;2023-06-26T15:52:56;6.38;;;1.65;;
8993;SDS011;4532;50.886;4.700;2023-06-26T15:55:26;3.05;;;1.35;;
8993;SDS011;4532;50.886;4.700;2023-06-26T15:57:55;4.68;;;1.40;;